createdAt,value
2023-04-29T00:01:32.413Z,16.46
2023-04-29T00:06:26.320Z,16.11
2023-04-29T00:08:53.292Z,15.99
2023-04-29T00:11:19.921Z,16.21
2023-04-29T00:13:46.733Z,16.20
2023-04-29T00:16:13.842Z,16.16
2023-04-29T00:18:40.557Z,16.07
2023-04-29T00:21:07.254Z,16.13
2023-04-29T00:23:34.586Z,15.98
2023-04-29T00:26:01.422Z,16.04
2023-04-29T00:28:28.441Z,15.88
2023-04-29T00:30:56.219Z,15.93
2023-04-29T00:33:23.548Z,15.82
2023-04-29T00:35:50.680Z,15.68
2023-04-29T00:38:17.630Z,15.72
2023-04-29T00:40:45.401Z,15.70
2023-04-29T00:43:12.257Z,15.55
2023-04-29T00:45:38.967Z,15.63
2023-04-29T00:48:05.872Z,15.83
2023-04-29T00:50:33.133Z,15.86
2023-04-29T00:53:00.917Z,15.84
2023-04-29T00:55:28.984Z,15.88
2023-04-29T00:57:57.190Z,15.91
2023-04-29T01:00:26.179Z,15.82
2023-04-29T01:02:54.866Z,15.71
2023-04-29T01:05:21.828Z,15.62
2023-04-29T01:08:01.022Z,15.62
2023-04-29T01:10:29.928Z,15.49
2023-04-29T01:13:09.657Z,15.43
2023-04-29T01:15:48.895Z,15.48
2023-04-29T01:19:08.634Z,15.44
2023-04-29T01:21:46.390Z,15.38
2023-04-29T01:24:13.038Z,15.41
2023-04-29T01:26:42.396Z,15.38
2023-04-29T01:29:44.096Z,15.36
2023-04-29T01:32:23.247Z,15.17
2023-04-29T01:34:52.939Z,15.17
2023-04-29T01:37:28.603Z,15.10
2023-04-29T01:40:09.554Z,15.09
2023-04-29T01:42:48.348Z,14.85
2023-04-29T01:45:18.582Z,14.99
2023-04-29T01:47:47.242Z,14.92
2023-04-29T01:50:14.985Z,14.95
2023-04-29T01:52:41.704Z,14.87
2023-04-29T01:55:09.097Z,14.86
2023-04-29T01:57:44.238Z,14.87
2023-04-29T02:00:38.625Z,14.91
2023-04-29T02:03:05.859Z,14.95
2023-04-29T02:05:41.626Z,14.93
2023-04-29T02:08:08.808Z,14.66
2023-04-29T02:10:40.692Z,14.86
2023-04-29T02:13:22.255Z,14.97
2023-04-29T02:15:49.341Z,14.86
2023-04-29T02:18:16.731Z,14.72
2023-04-29T02:20:43.792Z,14.95
2023-04-29T02:23:10.681Z,14.91
2023-04-29T02:25:38.293Z,14.75
2023-04-29T02:28:05.202Z,14.68
2023-04-29T02:30:31.905Z,14.67
2023-04-29T02:32:59.349Z,14.79
2023-04-29T02:35:26.079Z,14.65
2023-04-29T02:37:54.221Z,14.41
2023-04-29T02:40:21.037Z,14.41
2023-04-29T02:42:47.659Z,14.57
2023-04-29T02:45:14.313Z,14.36
2023-04-29T02:47:41.113Z,14.60
2023-04-29T02:50:08.207Z,14.51
2023-04-29T02:52:35.175Z,14.83
2023-04-29T02:55:01.971Z,14.83
2023-04-29T02:57:29.744Z,14.90
2023-04-29T02:59:57.472Z,14.89
2023-04-29T03:02:24.460Z,14.81
2023-04-29T03:04:55.664Z,14.81
2023-04-29T03:07:22.619Z,14.68
2023-04-29T03:09:49.293Z,14.94
2023-04-29T03:12:16.863Z,14.66
2023-04-29T03:14:46.203Z,14.48
2023-04-29T03:17:13.691Z,14.75
2023-04-29T03:19:41.262Z,14.76
2023-04-29T03:22:11.723Z,14.65
2023-04-29T03:24:39.827Z,14.69
2023-04-29T03:27:06.528Z,14.63
2023-04-29T03:29:33.459Z,14.40
2023-04-29T03:32:00.456Z,14.49
2023-04-29T03:34:27.269Z,14.47
2023-04-29T03:37:17.488Z,14.32
2023-04-29T03:39:48.270Z,14.40
2023-04-29T03:42:15.069Z,14.50
2023-04-29T03:44:42.195Z,14.45
2023-04-29T03:47:09.602Z,14.57
2023-04-29T03:49:36.467Z,14.60
2023-04-29T03:52:04.785Z,14.58
2023-04-29T03:54:31.973Z,14.61
2023-04-29T03:56:58.609Z,14.55
2023-04-29T03:59:25.244Z,14.56
2023-04-29T04:01:54.120Z,14.48
2023-04-29T04:04:21.948Z,14.35
2023-04-29T04:06:52.055Z,14.25
2023-04-29T04:09:21.570Z,14.24
2023-04-29T04:11:48.467Z,14.42
2023-04-29T04:14:15.640Z,14.26
2023-04-29T04:16:42.862Z,14.51
2023-04-29T04:19:10.556Z,14.49
2023-04-29T04:21:41.078Z,14.43
2023-04-29T04:24:09.784Z,14.45
2023-04-29T04:26:37.959Z,14.41
2023-04-29T04:29:31.354Z,14.43
2023-04-29T04:32:00.760Z,14.46
2023-04-29T04:34:27.561Z,14.47
2023-04-29T04:36:56.884Z,14.39
2023-04-29T04:39:23.798Z,14.41
2023-04-29T04:41:51.827Z,14.50
2023-04-29T04:44:19.340Z,14.53
2023-04-29T04:47:06.506Z,14.59
2023-04-29T04:49:55.924Z,14.50
2023-04-29T04:52:23.225Z,14.57
2023-04-29T04:55:11.124Z,14.40
2023-04-29T04:57:43.225Z,14.27
2023-04-29T05:00:10.566Z,14.44
2023-04-29T05:02:37.915Z,14.44
2023-04-29T05:05:05.044Z,14.23
2023-04-29T05:07:36.016Z,14.56
2023-04-29T05:10:06.569Z,14.47
2023-04-29T05:12:36.592Z,14.53
2023-04-29T05:15:04.559Z,14.57
2023-04-29T05:17:32.107Z,14.70
2023-04-29T05:19:59.080Z,14.80
2023-04-29T05:22:25.805Z,14.86
2023-04-29T05:24:54.197Z,14.84
2023-04-29T05:27:21.723Z,14.75
2023-04-29T05:29:48.461Z,14.61
2023-04-29T05:32:15.482Z,14.70
2023-04-29T05:34:42.389Z,14.67
2023-04-29T05:37:09.239Z,14.70
2023-04-29T05:39:47.086Z,14.61
2023-04-29T05:42:16.426Z,14.74
2023-04-29T05:44:47.429Z,14.75
2023-04-29T05:47:14.495Z,14.68
2023-04-29T05:49:42.191Z,14.63
2023-04-29T05:52:09.138Z,14.65
2023-04-29T05:54:41.710Z,14.65
2023-04-29T05:57:08.692Z,14.77
2023-04-29T05:59:36.286Z,14.82
2023-04-29T06:02:05.120Z,14.47
2023-04-29T06:04:31.826Z,14.76
2023-04-29T06:07:33.972Z,14.86
2023-04-29T06:10:06.790Z,15.04
2023-04-29T06:12:33.597Z,15.00
2023-04-29T06:15:00.404Z,15.24
2023-04-29T06:17:29.439Z,14.94
2023-04-29T06:19:56.417Z,15.27
2023-04-29T06:22:24.016Z,15.19
2023-04-29T06:24:53.558Z,15.25
2023-04-29T06:27:27.175Z,15.26
2023-04-29T06:29:54.905Z,15.07
2023-04-29T06:32:22.135Z,15.05
2023-04-29T06:34:49.086Z,15.18
2023-04-29T06:37:56.565Z,15.56
2023-04-29T06:40:52.580Z,15.79
2023-04-29T06:43:19.157Z,15.96
2023-04-29T06:46:04.669Z,15.96
2023-04-29T06:48:54.155Z,16.08
2023-04-29T06:51:20.915Z,16.40
2023-04-29T06:53:48.155Z,16.46
2023-04-29T06:56:16.824Z,16.67
2023-04-29T06:58:43.867Z,16.78
2023-04-29T07:01:11.003Z,17.27
2023-04-29T07:03:38.491Z,17.62
2023-04-29T07:06:05.251Z,18.55
2023-04-29T07:08:32.285Z,19.06
2023-04-29T07:10:59.212Z,19.04
2023-04-29T07:13:26.201Z,19.41
2023-04-29T07:15:53.210Z,18.40
2023-04-29T07:18:19.876Z,18.34
2023-04-29T07:20:48.016Z,18.45
2023-04-29T07:23:15.516Z,18.37
2023-04-29T07:25:42.186Z,18.79
2023-04-29T07:28:11.652Z,19.05
2023-04-29T07:30:38.556Z,19.53
2023-04-29T07:33:05.390Z,20.04
2023-04-29T07:35:32.236Z,19.78
2023-04-29T07:37:58.972Z,20.56
2023-04-29T07:40:26.281Z,20.83
2023-04-29T07:42:57.510Z,21.23
2023-04-29T07:45:24.424Z,21.46
2023-04-29T07:47:51.377Z,21.20
2023-04-29T07:50:18.126Z,21.63
2023-04-29T07:52:44.745Z,21.12
2023-04-29T07:55:11.390Z,20.80
2023-04-29T07:57:38.639Z,20.86
2023-04-29T08:00:06.275Z,20.89
2023-04-29T08:02:42.592Z,21.01
2023-04-29T08:05:11.802Z,21.02
2023-04-29T08:07:38.915Z,21.07
2023-04-29T08:10:06.562Z,20.39
2023-04-29T08:12:36.810Z,19.87
2023-04-29T08:15:04.862Z,20.20
2023-04-29T08:17:31.851Z,20.62
2023-04-29T08:19:58.488Z,20.40
2023-04-29T08:22:25.204Z,19.87
2023-04-29T08:24:52.350Z,19.93
2023-04-29T08:27:19.806Z,20.54
2023-04-29T08:29:46.564Z,20.76
2023-04-29T08:32:13.268Z,20.90
2023-04-29T08:34:41.518Z,20.78
2023-04-29T08:37:08.164Z,20.70
2023-04-29T08:39:34.807Z,21.37
2023-04-29T08:42:08.220Z,22.23
2023-04-29T08:44:36.655Z,22.74
2023-04-29T08:47:04.913Z,23.28
2023-04-29T08:49:33.487Z,22.88
2023-04-29T08:52:00.840Z,22.75
2023-04-29T08:54:28.763Z,23.18
2023-04-29T08:56:56.509Z,23.53
2023-04-29T08:59:23.842Z,22.96
2023-04-29T09:01:53.555Z,22.80
2023-04-29T09:04:56.176Z,23.39
2023-04-29T09:07:24.266Z,24.17
2023-04-29T09:09:53.426Z,23.96
2023-04-29T09:12:20.259Z,23.63
2023-04-29T09:14:47.089Z,24.64
2023-04-29T09:17:16.256Z,25.54
2023-04-29T09:19:44.571Z,25.99
2023-04-29T09:22:11.588Z,26.57
2023-04-29T09:24:38.573Z,26.83
2023-04-29T09:27:05.258Z,27.34
2023-04-29T09:29:33.126Z,27.34
2023-04-29T09:32:00.122Z,26.74
2023-04-29T09:34:40.771Z,27.40
2023-04-29T09:37:28.033Z,27.17
2023-04-29T09:39:54.978Z,27.61
2023-04-29T09:42:21.432Z,26.68
2023-04-29T09:44:48.358Z,26.12
2023-04-29T09:47:14.940Z,25.44
2023-04-29T09:49:46.126Z,24.62
2023-04-29T09:52:14.989Z,25.52
2023-04-29T09:54:43.306Z,26.18
2023-04-29T09:57:11.567Z,26.56
2023-04-29T09:59:40.026Z,26.70
2023-04-29T10:02:20.850Z,27.33
2023-04-29T10:04:54.639Z,28.07
2023-04-29T10:07:21.962Z,28.82
2023-04-29T10:09:49.201Z,28.86
2023-04-29T10:12:20.664Z,29.66
2023-04-29T10:15:12.570Z,29.86
2023-04-29T10:18:01.810Z,29.51
2023-04-29T10:20:29.066Z,29.36
2023-04-29T10:22:59.901Z,30.08
2023-04-29T10:25:28.228Z,30.15
2023-04-29T10:27:55.917Z,29.38
2023-04-29T10:30:23.248Z,29.14
2023-04-29T10:32:52.379Z,29.50
2023-04-29T10:35:23.263Z,28.90
2023-04-29T10:37:50.535Z,27.76
2023-04-29T10:40:18.752Z,27.91
2023-04-29T10:42:47.719Z,28.43
2023-04-29T10:45:27.446Z,28.62
2023-04-29T10:48:05.540Z,28.54
2023-04-29T10:50:33.665Z,28.89
2023-04-29T10:53:04.947Z,30.58
2023-04-29T10:55:32.254Z,30.80
2023-04-29T10:57:59.226Z,31.43
2023-04-29T11:00:31.539Z,31.63
2023-04-29T11:03:05.068Z,31.29
2023-04-29T11:05:36.579Z,31.21
2023-04-29T11:08:24.085Z,31.47
2023-04-29T11:11:00.862Z,30.81
2023-04-29T11:13:29.470Z,30.88
2023-04-29T11:16:09.467Z,31.61
2023-04-29T11:18:37.628Z,32.53
2023-04-29T11:21:07.298Z,32.59
2023-04-29T11:23:35.099Z,32.48
2023-04-29T11:26:01.878Z,32.74
2023-04-29T11:28:30.289Z,32.91
2023-04-29T11:30:57.958Z,32.62
2023-04-29T11:33:27.234Z,32.05
2023-04-29T11:35:54.728Z,31.49
2023-04-29T11:38:43.194Z,31.27
2023-04-29T11:41:11.776Z,31.18
2023-04-29T11:43:39.824Z,31.28
2023-04-29T11:46:13.622Z,31.66
2023-04-29T11:48:48.206Z,31.90
2023-04-29T11:51:16.729Z,31.70
2023-04-29T11:53:43.692Z,31.17
2023-04-29T11:56:10.669Z,31.46
2023-04-29T11:58:37.588Z,32.09
2023-04-29T12:01:05.493Z,32.88
2023-04-29T12:03:33.815Z,34.48
2023-04-29T12:06:02.835Z,32.90
2023-04-29T12:08:30.580Z,31.45
2023-04-29T12:10:59.028Z,29.48
2023-04-29T12:13:38.252Z,29.67
2023-04-29T12:16:06.052Z,28.90
2023-04-29T12:18:33.151Z,28.97
2023-04-29T12:20:59.741Z,30.26
2023-04-29T12:23:29.720Z,30.34
2023-04-29T12:25:59.072Z,30.76
2023-04-29T12:28:27.045Z,30.76
2023-04-29T12:30:54.830Z,30.87
2023-04-29T12:33:23.600Z,30.94
2023-04-29T12:35:51.676Z,30.75
2023-04-29T12:38:22.883Z,30.10
2023-04-29T12:40:50.862Z,30.05
2023-04-29T12:43:17.532Z,30.08
2023-04-29T12:45:44.305Z,30.06
2023-04-29T12:48:18.503Z,29.38
2023-04-29T12:50:53.298Z,28.85
2023-04-29T12:53:19.767Z,28.47
2023-04-29T12:55:46.363Z,28.58
2023-04-29T12:58:12.966Z,28.21
2023-04-29T13:00:39.633Z,27.50
2023-04-29T13:03:07.229Z,26.96
2023-04-29T13:05:34.160Z,27.03
2023-04-29T13:08:01.507Z,26.64
2023-04-29T13:10:28.552Z,26.38
2023-04-29T13:12:55.070Z,26.19
2023-04-29T13:15:21.664Z,25.80
2023-04-29T13:17:48.364Z,25.79
2023-04-29T13:20:15.314Z,25.98
2023-04-29T13:22:43.542Z,26.30
2023-04-29T13:25:12.089Z,26.23
2023-04-29T13:27:39.284Z,26.42
2023-04-29T13:30:06.954Z,26.64
2023-04-29T13:32:43.776Z,26.35
2023-04-29T13:35:16.023Z,26.27
2023-04-29T13:37:42.801Z,26.51
2023-04-29T13:40:15.802Z,27.02
2023-04-29T13:42:50.088Z,27.34
2023-04-29T13:45:17.348Z,27.26
2023-04-29T13:48:04.015Z,27.03
2023-04-29T13:53:35.325Z,27.28
2023-04-29T13:58:56.153Z,26.12
2023-04-29T14:03:35.655Z,26.62
2023-04-29T14:06:02.836Z,26.97
2023-04-29T14:08:29.484Z,27.08
2023-04-29T14:10:56.041Z,27.22
2023-04-29T14:13:22.671Z,26.52
2023-04-29T14:15:49.356Z,26.73
2023-04-29T14:18:16.134Z,26.26
2023-04-29T14:20:42.769Z,26.25
2023-04-29T14:23:09.325Z,26.25
2023-04-29T14:25:35.967Z,26.07
2023-04-29T14:28:02.572Z,25.60
2023-04-29T14:30:29.259Z,25.64
2023-04-29T14:32:56.340Z,25.75
2023-04-29T14:35:22.969Z,25.77
2023-04-29T14:37:50.519Z,26.44
2023-04-29T14:40:18.410Z,26.34
2023-04-29T14:42:44.986Z,26.80
2023-04-29T14:45:12.344Z,27.24
2023-04-29T14:47:39.054Z,27.43
2023-04-29T14:50:07.199Z,27.60
2023-04-29T14:52:33.840Z,28.13
2023-04-29T14:55:00.785Z,26.27
2023-04-29T14:57:27.407Z,27.08
2023-04-29T14:59:53.936Z,26.69
2023-04-29T15:02:20.537Z,27.19
2023-04-29T15:04:47.285Z,27.08
2023-04-29T15:07:14.708Z,26.52
2023-04-29T15:09:42.093Z,26.77
2023-04-29T15:12:09.618Z,26.29
2023-04-29T15:14:36.339Z,26.31
2023-04-29T15:17:03.303Z,25.69
2023-04-29T15:19:29.977Z,26.18
2023-04-29T15:21:56.634Z,26.10
2023-04-29T15:24:23.185Z,26.01
2023-04-29T15:26:51.876Z,26.36
2023-04-29T15:29:18.593Z,25.89
2023-04-29T15:31:45.399Z,25.49
2023-04-29T15:34:12.081Z,25.34
2023-04-29T15:36:38.665Z,25.26
2023-04-29T15:39:05.277Z,24.95
2023-04-29T15:41:31.810Z,24.91
2023-04-29T15:43:58.501Z,24.89
2023-04-29T15:46:25.437Z,24.78
2023-04-29T15:48:52.113Z,24.71
2023-04-29T15:51:18.864Z,24.36
2023-04-29T15:53:45.544Z,23.88
2023-04-29T15:56:12.237Z,23.96
2023-04-29T15:58:38.889Z,23.72
2023-04-29T16:01:05.658Z,23.73
2023-04-29T16:03:32.427Z,23.82
2023-04-29T16:05:59.170Z,23.76
2023-04-29T16:08:26.411Z,24.02
2023-04-29T16:10:53.219Z,23.96
2023-04-29T16:13:19.903Z,24.16
2023-04-29T16:15:46.714Z,24.27
2023-04-29T16:18:14.662Z,24.09
2023-04-29T16:20:41.952Z,24.20
2023-04-29T16:23:08.804Z,23.85
2023-04-29T16:25:35.418Z,24.06
2023-04-29T16:28:02.201Z,24.06
2023-04-29T16:30:29.055Z,23.65
2023-04-29T16:32:55.663Z,23.52
2023-04-29T16:35:26.280Z,23.82
2023-04-29T16:37:55.702Z,23.00
2023-04-29T16:40:23.997Z,23.35
2023-04-29T16:42:51.221Z,23.50
2023-04-29T16:45:18.384Z,23.59
2023-04-29T16:47:45.368Z,23.70
2023-04-29T16:50:12.297Z,23.46
2023-04-29T16:52:38.881Z,23.27
2023-04-29T16:55:06.030Z,23.54
2023-04-29T16:57:33.548Z,23.75
2023-04-29T17:00:00.301Z,23.08
2023-04-29T17:02:27.408Z,23.06
2023-04-29T17:04:54.339Z,22.80
2023-04-29T17:07:21.369Z,22.64
2023-04-29T17:09:48.319Z,22.73
2023-04-29T17:12:15.261Z,22.74
2023-04-29T17:14:41.889Z,22.65
2023-04-29T17:17:08.574Z,22.85
2023-04-29T17:19:35.286Z,22.80
2023-04-29T17:22:02.076Z,22.63
2023-04-29T17:24:29.590Z,22.71
2023-04-29T17:26:56.170Z,22.71
2023-04-29T17:29:22.933Z,22.65
2023-04-29T17:31:54.829Z,22.38
2023-04-29T17:34:25.591Z,22.32
2023-04-29T17:36:53.330Z,22.23
2023-04-29T17:39:20.064Z,22.19
2023-04-29T17:41:46.721Z,22.17
2023-04-29T17:44:13.322Z,22.12
2023-04-29T17:46:40.647Z,22.20
2023-04-29T17:49:07.423Z,22.07
2023-04-29T17:51:34.336Z,22.03
2023-04-29T17:54:02.265Z,22.03
2023-04-29T17:56:29.179Z,21.94
2023-04-29T17:58:55.847Z,21.98
2023-04-29T18:01:22.682Z,22.14
2023-04-29T18:03:51.329Z,21.91
2023-04-29T18:06:18.470Z,21.92
2023-04-29T18:08:46.128Z,21.90
2023-04-29T18:11:12.965Z,21.87
2023-04-29T18:13:40.679Z,21.96
2023-04-29T18:16:08.805Z,21.86
2023-04-29T18:18:37.212Z,21.96
2023-04-29T18:21:04.449Z,21.91
2023-04-29T18:23:31.139Z,21.70
2023-04-29T18:25:58.068Z,21.77
2023-04-29T18:28:25.588Z,21.68
2023-04-29T18:30:52.924Z,21.72
2023-04-29T18:33:19.674Z,21.51
2023-04-29T18:35:46.541Z,21.71
2023-04-29T18:38:17.042Z,21.53
2023-04-29T18:40:44.501Z,21.62
2023-04-29T18:43:12.082Z,21.63
2023-04-29T18:45:38.883Z,21.40
2023-04-29T18:48:07.028Z,21.46
2023-04-29T18:50:34.262Z,21.40
2023-04-29T18:53:01.207Z,20.88
2023-04-29T18:55:28.083Z,21.20
2023-04-29T18:57:54.737Z,21.04
2023-04-29T19:00:21.862Z,21.12
2023-04-29T19:02:48.764Z,21.13
2023-04-29T19:05:15.925Z,21.22
2023-04-29T19:07:43.135Z,21.05
2023-04-29T19:10:10.009Z,21.06
2023-04-29T19:12:36.708Z,20.92
2023-04-29T19:15:03.592Z,21.02
2023-04-29T19:17:30.542Z,20.95
2023-04-29T19:19:57.177Z,20.90
2023-04-29T19:22:23.856Z,20.63
2023-04-29T19:24:50.607Z,20.77
2023-04-29T19:27:17.320Z,20.70
2023-04-29T19:29:44.106Z,20.73
2023-04-29T19:32:10.928Z,20.65
2023-04-29T19:34:37.821Z,20.73
2023-04-29T19:37:04.426Z,20.51
2023-04-29T19:39:31.004Z,20.38
2023-04-29T19:41:58.233Z,20.41
2023-04-29T19:44:25.024Z,20.39
2023-04-29T19:46:53.425Z,20.35
2023-04-29T19:49:20.771Z,20.28
2023-04-29T19:51:47.530Z,20.29
2023-04-29T19:54:14.539Z,20.27
2023-04-29T19:56:41.181Z,20.24
2023-04-29T19:59:07.859Z,20.13
2023-04-29T20:01:35.112Z,20.10
2023-04-29T20:04:01.832Z,19.92
2023-04-29T20:06:29.098Z,20.04
2023-04-29T20:08:56.118Z,20.02
2023-04-29T20:11:23.950Z,20.04
2023-04-29T20:13:50.732Z,20.03
2023-04-29T20:16:17.478Z,19.84
2023-04-29T20:18:44.176Z,19.89
2023-04-29T20:21:12.217Z,19.69
2023-04-29T20:23:38.854Z,19.72
2023-04-29T20:26:05.583Z,19.73
2023-04-29T20:28:32.170Z,19.67
2023-04-29T20:31:01.193Z,19.66
2023-04-29T20:33:27.958Z,19.57
2023-04-29T20:35:54.686Z,19.60
2023-04-29T20:38:22.667Z,19.51
2023-04-29T20:40:54.373Z,19.54
2023-04-29T20:43:21.150Z,19.46
2023-04-29T20:45:47.823Z,19.51
2023-04-29T20:48:14.998Z,19.33
2023-04-29T20:50:41.804Z,19.54
2023-04-29T20:53:08.734Z,19.29
2023-04-29T20:55:35.588Z,19.37
2023-04-29T20:58:02.209Z,19.32
2023-04-29T21:00:28.906Z,19.34
2023-04-29T21:02:55.616Z,19.17
2023-04-29T21:05:22.301Z,19.23
2023-04-29T21:07:49.388Z,19.05
2023-04-29T21:10:17.743Z,19.35
2023-04-29T21:12:44.357Z,19.28
2023-04-29T21:15:11.397Z,19.24
2023-04-29T21:17:38.224Z,19.36
2023-04-29T21:20:05.887Z,19.29
2023-04-29T21:22:32.520Z,19.09
2023-04-29T21:24:59.175Z,19.18
2023-04-29T21:27:25.795Z,18.98
2023-04-29T21:29:52.569Z,19.18
2023-04-29T21:32:21.602Z,19.20
2023-04-29T21:34:48.884Z,18.96
2023-04-29T21:37:15.974Z,19.15
2023-04-29T21:39:42.732Z,19.06
2023-04-29T21:42:10.800Z,19.13
2023-04-29T21:44:38.237Z,19.16
2023-04-29T21:47:05.052Z,18.98
2023-04-29T21:49:32.107Z,19.03
2023-04-29T21:51:59.460Z,18.80
2023-04-29T21:54:26.066Z,18.86
2023-04-29T21:56:52.791Z,18.87
2023-04-29T21:59:19.704Z,19.13
2023-04-29T22:01:46.419Z,19.23
2023-04-29T22:04:13.074Z,19.23
2023-04-29T22:06:39.955Z,19.17
2023-04-29T22:09:07.219Z,19.32
2023-04-29T22:11:33.973Z,19.35
2023-04-29T22:14:00.675Z,19.42
2023-04-29T22:16:27.391Z,19.41
2023-04-29T22:18:54.788Z,19.23
2023-04-29T22:21:21.351Z,19.49
2023-04-29T22:23:49.320Z,19.48
2023-04-29T22:26:16.041Z,19.47
2023-04-29T22:28:42.678Z,19.35
2023-04-29T22:31:09.404Z,19.41
2023-04-29T22:33:36.091Z,19.33
2023-04-29T22:36:03.995Z,19.31
2023-04-29T22:38:30.699Z,19.32
2023-04-29T22:40:57.306Z,19.28
2023-04-29T22:43:24.152Z,19.26
2023-04-29T22:45:57.654Z,19.27
2023-04-29T22:48:27.302Z,19.24
2023-04-29T22:50:56.124Z,19.21
2023-04-29T22:53:22.870Z,19.13
2023-04-29T22:55:57.680Z,19.07
2023-04-29T22:58:25.709Z,18.93
2023-04-29T23:00:56.390Z,19.03
2023-04-29T23:03:24.163Z,19.00
2023-04-29T23:05:51.012Z,18.78
2023-04-29T23:08:17.666Z,18.58
2023-04-29T23:10:50.880Z,18.91
2023-04-29T23:13:17.669Z,18.66
2023-04-29T23:15:45.319Z,18.82
2023-04-29T23:18:12.452Z,18.73
2023-04-29T23:20:39.237Z,18.70
2023-04-29T23:23:06.026Z,18.50
2023-04-29T23:25:32.844Z,18.54
2023-04-29T23:27:59.566Z,18.62
2023-04-29T23:30:26.297Z,18.49
2023-04-29T23:32:53.253Z,18.45
2023-04-29T23:35:19.873Z,18.54
2023-04-29T23:37:46.541Z,18.20
2023-04-29T23:40:13.278Z,18.21
2023-04-29T23:42:39.971Z,18.27
2023-04-29T23:45:07.413Z,17.96
2023-04-29T23:47:34.221Z,18.11
2023-04-29T23:50:00.852Z,18.18
2023-04-29T23:52:27.605Z,18.20
2023-04-29T23:54:54.377Z,18.08
2023-04-29T23:57:21.257Z,18.16
2023-04-29T23:59:47.938Z,18.08
